sensor_id;sensor_type;location;lat;lon;timestamp;P1;durP1;ratioP1;P2;durP2;ratioP2
5805;SDS011;2929;50.810;8.342;2023-09-12T00:01:04;18.03;;;8.00;;
5805;SDS011;2929;50.810;8.342;2023-09-12T00:03:34;17.60;;;7.60;;
5805;SDS011;2929;50.810;8.342;2023-09-12T00:06:02;17.37;;;9.30;;
5805;SDS011;2929;50.810;8.342;2023-09-12T00:08:29;15.90;;;8.13;;
5805;SDS011;2929;50.810;8.342;2023-09-12T00:11:00;22.10;;;8.43;;
5805;SDS011;2929;50.810;8.342;2023-09-12T00:13:28;14.73;;;7.90;;
5805;SDS011;2929;50.810;8.342;2023-09-12T00:15:56;16.17;;;8.20;;
5805;SDS011;2929;50.810;8.342;2023-09-12T00:18:23;16.93;;;7.30;;
5805;SDS011;2929;50.810;8.342;2023-09-12T00:20:52;22.60;;;8.80;;
5805;SDS011;2929;50.810;8.342;2023-09-12T00:23:20;23.50;;;9.23;;
5805;SDS011;2929;50.810;8.342;2023-09-12T00:25:48;19.40;;;8.07;;
5805;SDS011;2929;50.810;8.342;2023-09-12T00:28:16;25.47;;;12.03;;
5805;SDS011;2929;50.810;8.342;2023-09-12T00:30:44;20.00;;;9.27;;
5805;SDS011;2929;50.810;8.342;2023-09-12T00:33:11;20.20;;;8.70;;
5805;SDS011;2929;50.810;8.342;2023-09-12T00:35:38;17.50;;;9.13;;
5805;SDS011;2929;50.810;8.342;2023-09-12T00:38:08;19.33;;;9.20;;
5805;SDS011;2929;50.810;8.342;2023-09-12T00:40:35;21.73;;;7.97;;
5805;SDS011;2929;50.810;8.342;2023-09-12T00:43:03;21.37;;;8.60;;
5805;SDS011;2929;50.810;8.342;2023-09-12T00:45:30;27.30;;;8.87;;
5805;SDS011;2929;50.810;8.342;2023-09-12T00:47:58;21.67;;;8.90;;
5805;SDS011;2929;50.810;8.342;2023-09-12T00:50:25;17.23;;;8.63;;
5805;SDS011;2929;50.810;8.342;2023-09-12T00:52:53;18.37;;;8.63;;
5805;SDS011;2929;50.810;8.342;2023-09-12T00:55:23;20.77;;;9.13;;
5805;SDS011;2929;50.810;8.342;2023-09-12T00:57:51;20.00;;;8.60;;
5805;SDS011;2929;50.810;8.342;2023-09-12T01:00:19;19.27;;;8.80;;
5805;SDS011;2929;50.810;8.342;2023-09-12T01:02:47;17.87;;;8.40;;
5805;SDS011;2929;50.810;8.342;2023-09-12T01:05:15;20.30;;;9.17;;
5805;SDS011;2929;50.810;8.342;2023-09-12T01:07:43;17.30;;;8.33;;
5805;SDS011;2929;50.810;8.342;2023-09-12T01:10:11;17.57;;;9.00;;
5805;SDS011;2929;50.810;8.342;2023-09-12T01:12:40;21.63;;;10.10;;
5805;SDS011;2929;50.810;8.342;2023-09-12T01:15:08;27.50;;;9.57;;
5805;SDS011;2929;50.810;8.342;2023-09-12T01:17:39;23.03;;;8.20;;
5805;SDS011;2929;50.810;8.342;2023-09-12T01:20:07;26.80;;;9.40;;
5805;SDS011;2929;50.810;8.342;2023-09-12T01:22:46;26.33;;;8.13;;
5805;SDS011;2929;50.810;8.342;2023-09-12T01:25:24;21.17;;;7.80;;
5805;SDS011;2929;50.810;8.342;2023-09-12T01:27:55;21.07;;;8.13;;
5805;SDS011;2929;50.810;8.342;2023-09-12T01:30:25;19.60;;;8.60;;
5805;SDS011;2929;50.810;8.342;2023-09-12T01:32:54;14.67;;;8.53;;
5805;SDS011;2929;50.810;8.342;2023-09-12T01:35:21;19.60;;;8.97;;
5805;SDS011;2929;50.810;8.342;2023-09-12T01:37:49;13.97;;;8.43;;
5805;SDS011;2929;50.810;8.342;2023-09-12T01:40:16;22.20;;;9.13;;
5805;SDS011;2929;50.810;8.342;2023-09-12T01:42:44;18.50;;;8.03;;
5805;SDS011;2929;50.810;8.342;2023-09-12T01:45:15;15.47;;;8.47;;
5805;SDS011;2929;50.810;8.342;2023-09-12T01:47:43;18.77;;;8.10;;
5805;SDS011;2929;50.810;8.342;2023-09-12T01:50:13;16.03;;;7.77;;
5805;SDS011;2929;50.810;8.342;2023-09-12T01:52:41;16.77;;;9.33;;
5805;SDS011;2929;50.810;8.342;2023-09-12T01:55:08;20.43;;;8.97;;
5805;SDS011;2929;50.810;8.342;2023-09-12T01:57:36;15.83;;;8.03;;
5805;SDS011;2929;50.810;8.342;2023-09-12T02:00:07;12.23;;;7.83;;
5805;SDS011;2929;50.810;8.342;2023-09-12T02:02:36;17.13;;;8.90;;
5805;SDS011;2929;50.810;8.342;2023-09-12T02:05:06;25.03;;;9.93;;
5805;SDS011;2929;50.810;8.342;2023-09-12T02:07:37;19.93;;;8.53;;
5805;SDS011;2929;50.810;8.342;2023-09-12T02:10:05;15.67;;;7.67;;
5805;SDS011;2929;50.810;8.342;2023-09-12T02:12:32;17.90;;;8.50;;
5805;SDS011;2929;50.810;8.342;2023-09-12T02:14:59;18.80;;;8.83;;
5805;SDS011;2929;50.810;8.342;2023-09-12T02:17:27;17.93;;;9.00;;
5805;SDS011;2929;50.810;8.342;2023-09-12T02:19:55;15.97;;;8.87;;
5805;SDS011;2929;50.810;8.342;2023-09-12T02:22:23;26.70;;;9.33;;
5805;SDS011;2929;50.810;8.342;2023-09-12T02:24:51;23.17;;;9.87;;
5805;SDS011;2929;50.810;8.342;2023-09-12T02:27:18;18.30;;;9.23;;
5805;SDS011;2929;50.810;8.342;2023-09-12T02:29:45;15.80;;;8.30;;
5805;SDS011;2929;50.810;8.342;2023-09-12T02:32:12;19.27;;;8.90;;
5805;SDS011;2929;50.810;8.342;2023-09-12T02:34:40;20.43;;;9.63;;
5805;SDS011;2929;50.810;8.342;2023-09-12T02:37:08;20.23;;;8.50;;
5805;SDS011;2929;50.810;8.342;2023-09-12T02:39:36;16.40;;;8.30;;
5805;SDS011;2929;50.810;8.342;2023-09-12T02:42:03;20.67;;;7.90;;
5805;SDS011;2929;50.810;8.342;2023-09-12T02:44:30;17.83;;;9.27;;
5805;SDS011;2929;50.810;8.342;2023-09-12T02:46:58;17.30;;;8.70;;
5805;SDS011;2929;50.810;8.342;2023-09-12T02:49:25;25.50;;;8.63;;
5805;SDS011;2929;50.810;8.342;2023-09-12T02:51:52;18.40;;;9.30;;
5805;SDS011;2929;50.810;8.342;2023-09-12T02:54:21;19.00;;;9.37;;
5805;SDS011;2929;50.810;8.342;2023-09-12T02:56:48;26.73;;;9.70;;
5805;SDS011;2929;50.810;8.342;2023-09-12T02:59:16;24.67;;;8.93;;
5805;SDS011;2929;50.810;8.342;2023-09-12T03:01:44;19.80;;;8.87;;
5805;SDS011;2929;50.810;8.342;2023-09-12T03:04:11;29.60;;;9.90;;
5805;SDS011;2929;50.810;8.342;2023-09-12T03:06:39;18.30;;;9.40;;
5805;SDS011;2929;50.810;8.342;2023-09-12T03:09:06;17.50;;;10.23;;
5805;SDS011;2929;50.810;8.342;2023-09-12T03:11:35;21.10;;;9.20;;
5805;SDS011;2929;50.810;8.342;2023-09-12T03:14:02;26.00;;;8.93;;
5805;SDS011;2929;50.810;8.342;2023-09-12T03:16:30;18.50;;;8.50;;
5805;SDS011;2929;50.810;8.342;2023-09-12T03:18:58;20.27;;;8.40;;
5805;SDS011;2929;50.810;8.342;2023-09-12T03:21:26;19.23;;;9.70;;
5805;SDS011;2929;50.810;8.342;2023-09-12T03:23:54;26.10;;;10.43;;
5805;SDS011;2929;50.810;8.342;2023-09-12T03:26:21;19.23;;;9.13;;
5805;SDS011;2929;50.810;8.342;2023-09-12T03:28:50;17.20;;;9.03;;
5805;SDS011;2929;50.810;8.342;2023-09-12T03:31:17;22.80;;;9.63;;
5805;SDS011;2929;50.810;8.342;2023-09-12T03:33:45;15.50;;;8.40;;
5805;SDS011;2929;50.810;8.342;2023-09-12T03:36:16;19.40;;;10.00;;
5805;SDS011;2929;50.810;8.342;2023-09-12T03:38:44;18.07;;;9.43;;
5805;SDS011;2929;50.810;8.342;2023-09-12T03:41:11;17.00;;;8.60;;
5805;SDS011;2929;50.810;8.342;2023-09-12T03:43:39;20.70;;;8.77;;
5805;SDS011;2929;50.810;8.342;2023-09-12T03:46:08;26.10;;;9.30;;
5805;SDS011;2929;50.810;8.342;2023-09-12T03:48:35;21.07;;;9.80;;
5805;SDS011;2929;50.810;8.342;2023-09-12T03:51:02;28.87;;;9.80;;
5805;SDS011;2929;50.810;8.342;2023-09-12T03:53:30;17.93;;;9.03;;
5805;SDS011;2929;50.810;8.342;2023-09-12T03:55:57;19.23;;;9.03;;
5805;SDS011;2929;50.810;8.342;2023-09-12T03:58:26;14.93;;;8.50;;
5805;SDS011;2929;50.810;8.342;2023-09-12T04:00:53;14.77;;;8.97;;
5805;SDS011;2929;50.810;8.342;2023-09-12T04:03:22;20.53;;;9.07;;
5805;SDS011;2929;50.810;8.342;2023-09-12T04:05:50;21.67;;;9.13;;
5805;SDS011;2929;50.810;8.342;2023-09-12T04:08:17;17.10;;;9.23;;
5805;SDS011;2929;50.810;8.342;2023-09-12T04:10:45;16.30;;;8.70;;
5805;SDS011;2929;50.810;8.342;2023-09-12T04:13:12;16.00;;;9.77;;
5805;SDS011;2929;50.810;8.342;2023-09-12T04:15:39;18.33;;;9.73;;
5805;SDS011;2929;50.810;8.342;2023-09-12T04:18:07;23.60;;;9.70;;
5805;SDS011;2929;50.810;8.342;2023-09-12T04:20:36;21.27;;;9.53;;
5805;SDS011;2929;50.810;8.342;2023-09-12T04:23:04;14.43;;;8.33;;
5805;SDS011;2929;50.810;8.342;2023-09-12T04:25:31;27.67;;;9.73;;
5805;SDS011;2929;50.810;8.342;2023-09-12T04:28:02;29.20;;;9.40;;
5805;SDS011;2929;50.810;8.342;2023-09-12T04:30:29;17.37;;;10.23;;
5805;SDS011;2929;50.810;8.342;2023-09-12T04:32:57;22.63;;;9.87;;
5805;SDS011;2929;50.810;8.342;2023-09-12T04:35:25;19.07;;;10.30;;
5805;SDS011;2929;50.810;8.342;2023-09-12T04:37:53;18.70;;;9.33;;
5805;SDS011;2929;50.810;8.342;2023-09-12T04:40:20;15.63;;;8.83;;
5805;SDS011;2929;50.810;8.342;2023-09-12T04:42:48;16.10;;;10.00;;
5805;SDS011;2929;50.810;8.342;2023-09-12T04:45:15;17.40;;;9.70;;
5805;SDS011;2929;50.810;8.342;2023-09-12T04:47:42;17.83;;;8.90;;
5805;SDS011;2929;50.810;8.342;2023-09-12T04:50:10;22.30;;;9.17;;
5805;SDS011;2929;50.810;8.342;2023-09-12T04:52:37;22.13;;;10.37;;
5805;SDS011;2929;50.810;8.342;2023-09-12T04:55:07;14.87;;;8.50;;
5805;SDS011;2929;50.810;8.342;2023-09-12T04:57:34;20.10;;;10.10;;
5805;SDS011;2929;50.810;8.342;2023-09-12T05:00:01;33.00;;;9.23;;
5805;SDS011;2929;50.810;8.342;2023-09-12T05:02:30;18.00;;;9.40;;
5805;SDS011;2929;50.810;8.342;2023-09-12T05:04:57;27.00;;;9.47;;
5805;SDS011;2929;50.810;8.342;2023-09-12T05:07:25;21.53;;;9.87;;
5805;SDS011;2929;50.810;8.342;2023-09-12T05:09:52;29.93;;;9.90;;
5805;SDS011;2929;50.810;8.342;2023-09-12T05:12:21;20.90;;;9.63;;
5805;SDS011;2929;50.810;8.342;2023-09-12T05:14:49;23.10;;;9.93;;
5805;SDS011;2929;50.810;8.342;2023-09-12T05:17:16;13.20;;;9.20;;
5805;SDS011;2929;50.810;8.342;2023-09-12T05:19:43;16.97;;;9.30;;
5805;SDS011;2929;50.810;8.342;2023-09-12T05:22:11;24.13;;;12.47;;
5805;SDS011;2929;50.810;8.342;2023-09-12T05:24:38;15.33;;;8.80;;
5805;SDS011;2929;50.810;8.342;2023-09-12T05:27:05;20.63;;;10.23;;
5805;SDS011;2929;50.810;8.342;2023-09-12T05:29:34;19.03;;;9.70;;
5805;SDS011;2929;50.810;8.342;2023-09-12T05:32:01;20.33;;;9.80;;
5805;SDS011;2929;50.810;8.342;2023-09-12T05:34:28;15.83;;;9.63;;
5805;SDS011;2929;50.810;8.342;2023-09-12T05:36:56;21.50;;;9.67;;
5805;SDS011;2929;50.810;8.342;2023-09-12T05:39:23;17.40;;;11.57;;
5805;SDS011;2929;50.810;8.342;2023-09-12T05:41:50;18.33;;;10.40;;
5805;SDS011;2929;50.810;8.342;2023-09-12T05:44:18;22.27;;;10.63;;
5805;SDS011;2929;50.810;8.342;2023-09-12T05:46:47;16.63;;;9.30;;
5805;SDS011;2929;50.810;8.342;2023-09-12T05:49:14;18.17;;;10.50;;
5805;SDS011;2929;50.810;8.342;2023-09-12T05:51:42;35.93;;;12.10;;
5805;SDS011;2929;50.810;8.342;2023-09-12T05:54:10;43.47;;;11.57;;
5805;SDS011;2929;50.810;8.342;2023-09-12T05:56:38;30.17;;;11.03;;
5805;SDS011;2929;50.810;8.342;2023-09-12T05:59:06;25.70;;;11.10;;
5805;SDS011;2929;50.810;8.342;2023-09-12T06:01:33;16.53;;;10.83;;
5805;SDS011;2929;50.810;8.342;2023-09-12T06:04:01;22.20;;;9.87;;
5805;SDS011;2929;50.810;8.342;2023-09-12T06:06:31;25.57;;;11.70;;
5805;SDS011;2929;50.810;8.342;2023-09-12T06:08:58;20.50;;;10.97;;
5805;SDS011;2929;50.810;8.342;2023-09-12T06:11:25;27.20;;;11.70;;
5805;SDS011;2929;50.810;8.342;2023-09-12T06:13:52;23.53;;;11.53;;
5805;SDS011;2929;50.810;8.342;2023-09-12T06:16:19;25.40;;;12.60;;
5805;SDS011;2929;50.810;8.342;2023-09-12T06:18:47;27.43;;;12.13;;
5805;SDS011;2929;50.810;8.342;2023-09-12T06:21:16;25.57;;;13.57;;
5805;SDS011;2929;50.810;8.342;2023-09-12T06:23:43;24.07;;;11.90;;
5805;SDS011;2929;50.810;8.342;2023-09-12T06:26:10;27.13;;;12.97;;
5805;SDS011;2929;50.810;8.342;2023-09-12T06:28:37;18.43;;;12.00;;
5805;SDS011;2929;50.810;8.342;2023-09-12T06:31:07;30.50;;;9.97;;
5805;SDS011;2929;50.810;8.342;2023-09-12T06:33:35;25.80;;;10.03;;
5805;SDS011;2929;50.810;8.342;2023-09-12T06:36:02;31.10;;;10.63;;
5805;SDS011;2929;50.810;8.342;2023-09-12T06:38:32;25.37;;;10.40;;
5805;SDS011;2929;50.810;8.342;2023-09-12T06:40:59;22.20;;;11.13;;
5805;SDS011;2929;50.810;8.342;2023-09-12T06:43:29;21.90;;;10.83;;
5805;SDS011;2929;50.810;8.342;2023-09-12T06:45:57;25.50;;;10.47;;
5805;SDS011;2929;50.810;8.342;2023-09-12T06:48:24;22.27;;;9.77;;
5805;SDS011;2929;50.810;8.342;2023-09-12T06:50:54;25.27;;;10.97;;
5805;SDS011;2929;50.810;8.342;2023-09-12T06:53:21;36.43;;;12.57;;
5805;SDS011;2929;50.810;8.342;2023-09-12T06:55:50;37.93;;;11.23;;
5805;SDS011;2929;50.810;8.342;2023-09-12T06:58:17;23.03;;;11.03;;
5805;SDS011;2929;50.810;8.342;2023-09-12T07:00:45;23.00;;;11.63;;
5805;SDS011;2929;50.810;8.342;2023-09-12T07:03:20;23.60;;;11.20;;
5805;SDS011;2929;50.810;8.342;2023-09-12T07:05:48;21.83;;;12.10;;
5805;SDS011;2929;50.810;8.342;2023-09-12T07:08:15;15.77;;;9.77;;
5805;SDS011;2929;50.810;8.342;2023-09-12T07:10:44;32.37;;;11.17;;
5805;SDS011;2929;50.810;8.342;2023-09-12T07:13:13;27.40;;;12.77;;
5805;SDS011;2929;50.810;8.342;2023-09-12T07:15:41;25.23;;;10.47;;
5805;SDS011;2929;50.810;8.342;2023-09-12T07:18:08;21.17;;;10.93;;
5805;SDS011;2929;50.810;8.342;2023-09-12T07:20:36;22.13;;;11.90;;
5805;SDS011;2929;50.810;8.342;2023-09-12T07:23:03;25.10;;;11.57;;
5805;SDS011;2929;50.810;8.342;2023-09-12T07:25:35;16.63;;;10.70;;
5805;SDS011;2929;50.810;8.342;2023-09-12T07:28:02;19.20;;;10.63;;
5805;SDS011;2929;50.810;8.342;2023-09-12T07:30:31;26.83;;;11.73;;
5805;SDS011;2929;50.810;8.342;2023-09-12T07:32:59;30.10;;;12.03;;
5805;SDS011;2929;50.810;8.342;2023-09-12T07:35:28;22.13;;;11.70;;
5805;SDS011;2929;50.810;8.342;2023-09-12T07:37:59;25.70;;;12.80;;
5805;SDS011;2929;50.810;8.342;2023-09-12T07:40:27;22.40;;;11.90;;
5805;SDS011;2929;50.810;8.342;2023-09-12T07:42:54;21.73;;;11.13;;
5805;SDS011;2929;50.810;8.342;2023-09-12T07:45:22;18.90;;;11.60;;
5805;SDS011;2929;50.810;8.342;2023-09-12T07:47:50;20.40;;;11.60;;
5805;SDS011;2929;50.810;8.342;2023-09-12T07:50:18;19.43;;;11.93;;
5805;SDS011;2929;50.810;8.342;2023-09-12T07:52:45;15.07;;;10.77;;
5805;SDS011;2929;50.810;8.342;2023-09-12T07:55:12;24.00;;;11.90;;
5805;SDS011;2929;50.810;8.342;2023-09-12T07:57:40;21.87;;;11.40;;
5805;SDS011;2929;50.810;8.342;2023-09-12T08:00:08;14.70;;;10.53;;
5805;SDS011;2929;50.810;8.342;2023-09-12T08:02:38;19.10;;;11.13;;
5805;SDS011;2929;50.810;8.342;2023-09-12T08:05:07;16.60;;;10.10;;
5805;SDS011;2929;50.810;8.342;2023-09-12T08:07:35;21.53;;;10.00;;
5805;SDS011;2929;50.810;8.342;2023-09-12T08:10:02;16.20;;;10.47;;
5805;SDS011;2929;50.810;8.342;2023-09-12T08:12:29;21.93;;;10.53;;
5805;SDS011;2929;50.810;8.342;2023-09-12T08:14:57;20.40;;;10.60;;
5805;SDS011;2929;50.810;8.342;2023-09-12T08:17:25;21.93;;;11.33;;
5805;SDS011;2929;50.810;8.342;2023-09-12T08:19:52;15.33;;;10.27;;
5805;SDS011;2929;50.810;8.342;2023-09-12T08:22:21;20.77;;;9.73;;
5805;SDS011;2929;50.810;8.342;2023-09-12T08:24:48;24.23;;;11.00;;
5805;SDS011;2929;50.810;8.342;2023-09-12T08:27:16;18.50;;;9.87;;
5805;SDS011;2929;50.810;8.342;2023-09-12T08:29:43;14.60;;;10.03;;
5805;SDS011;2929;50.810;8.342;2023-09-12T08:32:12;13.97;;;9.70;;
5805;SDS011;2929;50.810;8.342;2023-09-12T08:34:39;18.63;;;10.23;;
5805;SDS011;2929;50.810;8.342;2023-09-12T08:37:07;18.73;;;10.40;;
5805;SDS011;2929;50.810;8.342;2023-09-12T08:39:41;24.37;;;10.03;;
5805;SDS011;2929;50.810;8.342;2023-09-12T08:42:10;19.50;;;9.20;;
5805;SDS011;2929;50.810;8.342;2023-09-12T08:44:38;18.17;;;9.23;;
5805;SDS011;2929;50.810;8.342;2023-09-12T08:47:07;19.50;;;8.80;;
5805;SDS011;2929;50.810;8.342;2023-09-12T08:49:35;21.00;;;8.63;;
5805;SDS011;2929;50.810;8.342;2023-09-12T08:52:03;23.70;;;9.00;;
5805;SDS011;2929;50.810;8.342;2023-09-12T08:54:30;22.03;;;9.80;;
5805;SDS011;2929;50.810;8.342;2023-09-12T08:56:59;19.07;;;9.43;;
5805;SDS011;2929;50.810;8.342;2023-09-12T08:59:27;18.30;;;8.73;;
5805;SDS011;2929;50.810;8.342;2023-09-12T09:01:55;15.47;;;8.70;;
5805;SDS011;2929;50.810;8.342;2023-09-12T09:04:23;23.53;;;8.70;;
5805;SDS011;2929;50.810;8.342;2023-09-12T09:06:53;16.53;;;8.90;;
5805;SDS011;2929;50.810;8.342;2023-09-12T09:09:22;18.17;;;8.00;;
5805;SDS011;2929;50.810;8.342;2023-09-12T09:11:50;16.77;;;8.10;;
5805;SDS011;2929;50.810;8.342;2023-09-12T09:14:18;12.23;;;7.80;;
5805;SDS011;2929;50.810;8.342;2023-09-12T09:16:46;22.27;;;8.67;;
5805;SDS011;2929;50.810;8.342;2023-09-12T09:19:13;15.60;;;9.57;;
5805;SDS011;2929;50.810;8.342;2023-09-12T09:21:41;16.90;;;8.20;;
5805;SDS011;2929;50.810;8.342;2023-09-12T09:24:10;14.13;;;8.33;;
5805;SDS011;2929;50.810;8.342;2023-09-12T09:26:41;14.80;;;8.50;;
5805;SDS011;2929;50.810;8.342;2023-09-12T09:29:10;14.10;;;7.80;;
5805;SDS011;2929;50.810;8.342;2023-09-12T09:31:41;16.53;;;9.13;;
5805;SDS011;2929;50.810;8.342;2023-09-12T09:34:12;19.90;;;8.77;;
5805;SDS011;2929;50.810;8.342;2023-09-12T09:36:43;17.07;;;8.60;;
5805;SDS011;2929;50.810;8.342;2023-09-12T09:39:10;28.13;;;8.57;;
5805;SDS011;2929;50.810;8.342;2023-09-12T09:41:37;15.27;;;8.90;;
5805;SDS011;2929;50.810;8.342;2023-09-12T09:44:05;22.13;;;8.53;;
5805;SDS011;2929;50.810;8.342;2023-09-12T09:46:34;11.70;;;8.07;;
5805;SDS011;2929;50.810;8.342;2023-09-12T09:49:03;20.10;;;9.43;;
5805;SDS011;2929;50.810;8.342;2023-09-12T09:51:31;13.87;;;8.60;;
5805;SDS011;2929;50.810;8.342;2023-09-12T09:53:58;13.03;;;7.73;;
5805;SDS011;2929;50.810;8.342;2023-09-12T09:56:26;17.87;;;8.27;;
5805;SDS011;2929;50.810;8.342;2023-09-12T09:58:53;16.20;;;8.10;;
5805;SDS011;2929;50.810;8.342;2023-09-12T10:01:20;15.10;;;8.40;;
5805;SDS011;2929;50.810;8.342;2023-09-12T10:03:48;15.23;;;8.70;;
5805;SDS011;2929;50.810;8.342;2023-09-12T10:06:17;19.03;;;9.10;;
5805;SDS011;2929;50.810;8.342;2023-09-12T10:08:45;15.60;;;7.83;;
5805;SDS011;2929;50.810;8.342;2023-09-12T10:11:13;15.80;;;8.30;;
5805;SDS011;2929;50.810;8.342;2023-09-12T10:13:42;15.87;;;8.60;;
5805;SDS011;2929;50.810;8.342;2023-09-12T10:16:12;17.40;;;7.83;;
5805;SDS011;2929;50.810;8.342;2023-09-12T10:18:40;11.57;;;7.17;;
5805;SDS011;2929;50.810;8.342;2023-09-12T10:21:10;10.93;;;7.50;;
5805;SDS011;2929;50.810;8.342;2023-09-12T10:23:41;18.63;;;7.53;;
5805;SDS011;2929;50.810;8.342;2023-09-12T10:26:11;12.53;;;6.97;;
5805;SDS011;2929;50.810;8.342;2023-09-12T10:28:40;8.47;;;6.77;;
5805;SDS011;2929;50.810;8.342;2023-09-12T10:31:08;16.20;;;7.77;;
5805;SDS011;2929;50.810;8.342;2023-09-12T10:33:35;15.07;;;7.90;;
5805;SDS011;2929;50.810;8.342;2023-09-12T10:36:03;13.10;;;7.57;;
5805;SDS011;2929;50.810;8.342;2023-09-12T10:38:30;13.37;;;7.17;;
5805;SDS011;2929;50.810;8.342;2023-09-12T10:41:01;22.97;;;7.33;;
5805;SDS011;2929;50.810;8.342;2023-09-12T10:43:29;22.70;;;7.77;;
5805;SDS011;2929;50.810;8.342;2023-09-12T10:45:58;10.70;;;6.70;;
5805;SDS011;2929;50.810;8.342;2023-09-12T10:48:28;16.13;;;8.43;;
5805;SDS011;2929;50.810;8.342;2023-09-12T10:50:56;15.37;;;7.07;;
5805;SDS011;2929;50.810;8.342;2023-09-12T10:53:24;19.53;;;7.37;;
5805;SDS011;2929;50.810;8.342;2023-09-12T10:56:17;15.00;;;6.90;;
5805;SDS011;2929;50.810;8.342;2023-09-12T11:01:32;14.30;;;8.23;;
5805;SDS011;2929;50.810;8.342;2023-09-12T11:03:59;12.73;;;7.37;;
5805;SDS011;2929;50.810;8.342;2023-09-12T11:06:48;12.57;;;7.00;;
5805;SDS011;2929;50.810;8.342;2023-09-12T11:09:16;36.47;;;7.57;;
5805;SDS011;2929;50.810;8.342;2023-09-12T11:11:46;7.43;;;6.00;;
5805;SDS011;2929;50.810;8.342;2023-09-12T11:14:14;12.00;;;6.80;;
5805;SDS011;2929;50.810;8.342;2023-09-12T11:16:41;14.40;;;7.90;;
5805;SDS011;2929;50.810;8.342;2023-09-12T11:19:16;17.30;;;6.53;;
5805;SDS011;2929;50.810;8.342;2023-09-12T11:21:44;13.47;;;6.07;;
5805;SDS011;2929;50.810;8.342;2023-09-12T11:24:12;15.93;;;6.90;;
5805;SDS011;2929;50.810;8.342;2023-09-12T11:26:53;17.60;;;6.83;;
5805;SDS011;2929;50.810;8.342;2023-09-12T11:29:21;37.33;;;7.30;;
5805;SDS011;2929;50.810;8.342;2023-09-12T11:31:54;28.37;;;7.47;;
5805;SDS011;2929;50.810;8.342;2023-09-12T11:34:24;14.13;;;6.80;;
5805;SDS011;2929;50.810;8.342;2023-09-12T11:36:54;14.40;;;6.73;;
5805;SDS011;2929;50.810;8.342;2023-09-12T11:39:22;16.00;;;6.77;;
5805;SDS011;2929;50.810;8.342;2023-09-12T11:41:50;17.50;;;6.27;;
5805;SDS011;2929;50.810;8.342;2023-09-12T11:44:20;25.83;;;7.17;;
5805;SDS011;2929;50.810;8.342;2023-09-12T11:46:48;9.93;;;5.70;;
5805;SDS011;2929;50.810;8.342;2023-09-12T11:49:16;11.90;;;6.60;;
5805;SDS011;2929;50.810;8.342;2023-09-12T11:51:51;10.60;;;6.00;;
5805;SDS011;2929;50.810;8.342;2023-09-12T11:54:19;9.53;;;6.00;;
5805;SDS011;2929;50.810;8.342;2023-09-12T11:56:47;6.03;;;5.20;;
5805;SDS011;2929;50.810;8.342;2023-09-12T11:59:16;10.93;;;6.07;;
5805;SDS011;2929;50.810;8.342;2023-09-12T12:01:45;14.60;;;5.97;;
5805;SDS011;2929;50.810;8.342;2023-09-12T12:04:13;12.93;;;6.60;;
5805;SDS011;2929;50.810;8.342;2023-09-12T12:06:40;10.53;;;5.77;;
5805;SDS011;2929;50.810;8.342;2023-09-12T12:09:09;16.07;;;6.50;;
5805;SDS011;2929;50.810;8.342;2023-09-12T12:11:36;8.70;;;6.00;;
5805;SDS011;2929;50.810;8.342;2023-09-12T12:14:11;10.50;;;6.67;;
5805;SDS011;2929;50.810;8.342;2023-09-12T12:16:45;12.40;;;5.93;;
5805;SDS011;2929;50.810;8.342;2023-09-12T12:19:27;22.43;;;5.87;;
5805;SDS011;2929;50.810;8.342;2023-09-12T12:22:03;17.83;;;6.73;;
5805;SDS011;2929;50.810;8.342;2023-09-12T12:24:39;17.33;;;7.07;;
5805;SDS011;2929;50.810;8.342;2023-09-12T12:27:07;20.50;;;6.07;;
5805;SDS011;2929;50.810;8.342;2023-09-12T12:29:36;10.77;;;6.07;;
5805;SDS011;2929;50.810;8.342;2023-09-12T12:32:05;16.53;;;6.10;;
5805;SDS011;2929;50.810;8.342;2023-09-12T12:34:35;12.63;;;5.63;;
5805;SDS011;2929;50.810;8.342;2023-09-12T12:37:03;11.47;;;5.40;;
5805;SDS011;2929;50.810;8.342;2023-09-12T12:39:31;11.20;;;6.10;;
5805;SDS011;2929;50.810;8.342;2023-09-12T12:41:58;8.73;;;5.90;;
5805;SDS011;2929;50.810;8.342;2023-09-12T12:44:32;11.20;;;5.20;;
5805;SDS011;2929;50.810;8.342;2023-09-12T12:47:03;8.93;;;5.73;;
5805;SDS011;2929;50.810;8.342;2023-09-12T12:49:35;9.53;;;5.77;;
5805;SDS011;2929;50.810;8.342;2023-09-12T12:52:04;16.67;;;6.80;;
5805;SDS011;2929;50.810;8.342;2023-09-12T12:54:32;17.27;;;6.10;;
5805;SDS011;2929;50.810;8.342;2023-09-12T12:57:00;10.70;;;6.60;;
5805;SDS011;2929;50.810;8.342;2023-09-12T12:59:30;16.17;;;6.07;;
5805;SDS011;2929;50.810;8.342;2023-09-12T13:02:01;16.53;;;5.90;;
5805;SDS011;2929;50.810;8.342;2023-09-12T13:04:34;19.70;;;7.10;;
5805;SDS011;2929;50.810;8.342;2023-09-12T13:07:03;15.20;;;6.20;;
5805;SDS011;2929;50.810;8.342;2023-09-12T13:09:30;12.10;;;6.30;;
5805;SDS011;2929;50.810;8.342;2023-09-12T13:11:58;16.03;;;6.03;;
5805;SDS011;2929;50.810;8.342;2023-09-12T13:14:25;13.60;;;6.50;;
5805;SDS011;2929;50.810;8.342;2023-09-12T13:23:20;15.53;;;6.27;;
5805;SDS011;2929;50.810;8.342;2023-09-12T13:25:51;14.27;;;6.70;;
5805;SDS011;2929;50.810;8.342;2023-09-12T13:28:18;13.67;;;6.23;;
5805;SDS011;2929;50.810;8.342;2023-09-12T13:30:45;13.67;;;6.30;;
5805;SDS011;2929;50.810;8.342;2023-09-12T13:33:13;12.60;;;6.80;;
5805;SDS011;2929;50.810;8.342;2023-09-12T13:35:41;14.07;;;6.00;;
5805;SDS011;2929;50.810;8.342;2023-09-12T13:38:08;12.47;;;6.20;;
5805;SDS011;2929;50.810;8.342;2023-09-12T13:40:38;13.90;;;5.93;;
5805;SDS011;2929;50.810;8.342;2023-09-12T13:43:06;11.30;;;6.50;;
5805;SDS011;2929;50.810;8.342;2023-09-12T13:45:34;12.53;;;6.20;;
5805;SDS011;2929;50.810;8.342;2023-09-12T13:48:01;21.37;;;6.40;;
5805;SDS011;2929;50.810;8.342;2023-09-12T13:50:29;17.23;;;6.93;;
5805;SDS011;2929;50.810;8.342;2023-09-12T13:53:03;14.40;;;6.60;;
5805;SDS011;2929;50.810;8.342;2023-09-12T13:58:38;18.03;;;6.47;;
5805;SDS011;2929;50.810;8.342;2023-09-12T14:01:06;12.83;;;6.37;;
5805;SDS011;2929;50.810;8.342;2023-09-12T14:03:34;15.80;;;6.20;;
5805;SDS011;2929;50.810;8.342;2023-09-12T14:06:02;16.07;;;6.57;;
5805;SDS011;2929;50.810;8.342;2023-09-12T14:08:30;14.90;;;6.80;;
5805;SDS011;2929;50.810;8.342;2023-09-12T14:10:57;13.87;;;6.50;;
5805;SDS011;2929;50.810;8.342;2023-09-12T14:13:24;13.50;;;6.27;;
5805;SDS011;2929;50.810;8.342;2023-09-12T14:15:54;13.07;;;6.70;;
5805;SDS011;2929;50.810;8.342;2023-09-12T14:18:21;17.90;;;6.70;;
5805;SDS011;2929;50.810;8.342;2023-09-12T14:20:49;12.77;;;6.87;;
5805;SDS011;2929;50.810;8.342;2023-09-12T14:23:17;18.73;;;5.70;;
5805;SDS011;2929;50.810;8.342;2023-09-12T14:25:46;13.03;;;5.70;;
5805;SDS011;2929;50.810;8.342;2023-09-12T14:28:13;12.57;;;5.60;;
5805;SDS011;2929;50.810;8.342;2023-09-12T14:30:41;13.27;;;6.00;;
5805;SDS011;2929;50.810;8.342;2023-09-12T14:33:11;14.17;;;6.07;;
5805;SDS011;2929;50.810;8.342;2023-09-12T14:35:39;16.10;;;5.80;;
5805;SDS011;2929;50.810;8.342;2023-09-12T14:38:07;14.27;;;6.00;;
5805;SDS011;2929;50.810;8.342;2023-09-12T14:40:34;12.30;;;5.63;;
5805;SDS011;2929;50.810;8.342;2023-09-12T14:43:03;14.13;;;6.57;;
5805;SDS011;2929;50.810;8.342;2023-09-12T14:45:30;10.20;;;5.67;;
5805;SDS011;2929;50.810;8.342;2023-09-12T14:47:58;12.20;;;6.40;;
5805;SDS011;2929;50.810;8.342;2023-09-12T14:50:27;20.07;;;6.57;;
5805;SDS011;2929;50.810;8.342;2023-09-12T14:52:55;14.90;;;6.37;;
5805;SDS011;2929;50.810;8.342;2023-09-12T14:55:22;10.77;;;6.00;;
5805;SDS011;2929;50.810;8.342;2023-09-12T14:57:49;17.63;;;6.10;;
5805;SDS011;2929;50.810;8.342;2023-09-12T15:00:19;10.33;;;5.63;;
5805;SDS011;2929;50.810;8.342;2023-09-12T15:02:48;15.73;;;5.97;;
5805;SDS011;2929;50.810;8.342;2023-09-12T15:05:15;23.90;;;6.20;;
5805;SDS011;2929;50.810;8.342;2023-09-12T15:07:45;10.20;;;5.77;;
5805;SDS011;2929;50.810;8.342;2023-09-12T15:10:12;13.73;;;7.50;;
5805;SDS011;2929;50.810;8.342;2023-09-12T15:12:39;12.20;;;5.67;;
5805;SDS011;2929;50.810;8.342;2023-09-12T15:15:07;13.87;;;5.13;;
5805;SDS011;2929;50.810;8.342;2023-09-12T15:17:35;14.43;;;5.83;;